sensor_id;sensor_type;location;lat;lon;timestamp;temperature;humidity
72928;SHT30;61071;51.618;19.388;2023-02-01T00:02:02;3.09;87.64
72928;SHT30;61071;51.618;19.388;2023-02-01T00:04:28;3.13;88.04
72928;SHT30;61071;51.618;19.388;2023-02-01T00:06:54;3.04;87.77
72928;SHT30;61071;51.618;19.388;2023-02-01T00:09:20;2.98;87.13
72928;SHT30;61071;51.618;19.388;2023-02-01T00:11:45;2.88;87.42
72928;SHT30;61071;51.618;19.388;2023-02-01T00:14:11;2.81;87.49
72928;SHT30;61071;51.618;19.388;2023-02-01T00:16:37;2.83;87.51
72928;SHT30;61071;51.618;19.388;2023-02-01T00:19:15;2.68;87.70
72928;SHT30;61071;51.618;19.388;2023-02-01T00:21:41;2.63;87.79
72928;SHT30;61071;51.618;19.388;2023-02-01T00:24:09;2.64;87.86
72928;SHT30;61071;51.618;19.388;2023-02-01T00:26:42;2.50;87.82
72928;SHT30;61071;51.618;19.388;2023-02-01T00:29:17;2.40;88.38
72928;SHT30;61071;51.618;19.388;2023-02-01T00:31:44;2.36;89.03
72928;SHT30;61071;51.618;19.388;2023-02-01T00:34:16;2.42;88.73
72928;SHT30;61071;51.618;19.388;2023-02-01T00:36:43;2.49;88.71
72928;SHT30;61071;51.618;19.388;2023-02-01T00:39:10;2.49;88.80
72928;SHT30;61071;51.618;19.388;2023-02-01T00:41:36;2.52;88.73
72928;SHT30;61071;51.618;19.388;2023-02-01T00:44:02;2.56;88.99
72928;SHT30;61071;51.618;19.388;2023-02-01T00:46:29;2.64;88.86
72928;SHT30;61071;51.618;19.388;2023-02-01T00:48:55;2.65;88.46
72928;SHT30;61071;51.618;19.388;2023-02-01T00:51:26;2.60;88.58
72928;SHT30;61071;51.618;19.388;2023-02-01T00:53:53;2.52;88.79
72928;SHT30;61071;51.618;19.388;2023-02-01T00:56:19;2.63;88.56
72928;SHT30;61071;51.618;19.388;2023-02-01T00:58:46;2.68;88.54
72928;SHT30;61071;51.618;19.388;2023-02-01T01:03:48;2.49;88.42
72928;SHT30;61071;51.618;19.388;2023-02-01T01:06:20;2.47;88.63
72928;SHT30;61071;51.618;19.388;2023-02-01T01:08:47;2.43;88.90
72928;SHT30;61071;51.618;19.388;2023-02-01T01:11:18;2.54;88.82
72928;SHT30;61071;51.618;19.388;2023-02-01T01:13:47;2.50;88.44
72928;SHT30;61071;51.618;19.388;2023-02-01T01:16:14;2.60;88.76
72928;SHT30;61071;51.618;19.388;2023-02-01T01:18:39;2.60;88.72
72928;SHT30;61071;51.618;19.388;2023-02-01T01:21:07;2.60;88.94
72928;SHT30;61071;51.618;19.388;2023-02-01T01:23:35;2.67;88.69
72928;SHT30;61071;51.618;19.388;2023-02-01T01:26:08;2.58;88.95
72928;SHT30;61071;51.618;19.388;2023-02-01T01:28:34;2.63;88.95
72928;SHT30;61071;51.618;19.388;2023-02-01T01:31:00;2.67;88.79
72928;SHT30;61071;51.618;19.388;2023-02-01T01:33:26;2.70;88.66
72928;SHT30;61071;51.618;19.388;2023-02-01T01:35:52;2.76;88.67
72928;SHT30;61071;51.618;19.388;2023-02-01T01:38:17;2.58;88.83
72928;SHT30;61071;51.618;19.388;2023-02-01T01:40:48;2.67;88.83
72928;SHT30;61071;51.618;19.388;2023-02-01T01:43:18;2.65;88.95
72928;SHT30;61071;51.618;19.388;2023-02-01T01:45:45;2.76;88.63
72928;SHT30;61071;51.618;19.388;2023-02-01T01:48:29;2.73;88.65
72928;SHT30;61071;51.618;19.388;2023-02-01T01:51:10;2.73;88.35
72928;SHT30;61071;51.618;19.388;2023-02-01T01:54:14;2.74;88.56
72928;SHT30;61071;51.618;19.388;2023-02-01T01:56:48;2.76;88.08
72928;SHT30;61071;51.618;19.388;2023-02-01T01:59:15;2.73;88.29
72928;SHT30;61071;51.618;19.388;2023-02-01T02:01:41;2.67;88.18
72928;SHT30;61071;51.618;19.388;2023-02-01T02:04:06;2.74;87.81
72928;SHT30;61071;51.618;19.388;2023-02-01T02:06:54;2.73;87.93
72928;SHT30;61071;51.618;19.388;2023-02-01T02:09:21;2.79;87.88
72928;SHT30;61071;51.618;19.388;2023-02-01T02:11:47;2.80;87.67
72928;SHT30;61071;51.618;19.388;2023-02-01T02:14:17;2.79;87.86
72928;SHT30;61071;51.618;19.388;2023-02-01T02:34:37;2.65;88.14
72928;SHT30;61071;51.618;19.388;2023-02-01T02:37:38;2.61;87.89
72928;SHT30;61071;51.618;19.388;2023-02-01T02:40:42;2.67;87.96
72928;SHT30;61071;51.618;19.388;2023-02-01T02:46:25;2.57;87.99
72928;SHT30;61071;51.618;19.388;2023-02-01T02:49:39;2.58;88.03
72928;SHT30;61071;51.618;19.388;2023-02-01T02:52:17;2.61;87.78
72928;SHT30;61071;51.618;19.388;2023-02-01T02:55:05;2.65;87.98
72928;SHT30;61071;51.618;19.388;2023-02-01T02:57:39;2.65;87.99
72928;SHT30;61071;51.618;19.388;2023-02-01T03:00:32;2.68;87.77
72928;SHT30;61071;51.618;19.388;2023-02-01T03:03:17;2.68;87.35
72928;SHT30;61071;51.618;19.388;2023-02-01T03:06:01;2.70;87.61
72928;SHT30;61071;51.618;19.388;2023-02-01T03:08:30;2.67;87.53
72928;SHT30;61071;51.618;19.388;2023-02-01T03:11:10;2.71;87.26
72928;SHT30;61071;51.618;19.388;2023-02-01T03:16:24;2.81;86.79
72928;SHT30;61071;51.618;19.388;2023-02-01T03:19:19;2.80;86.74
72928;SHT30;61071;51.618;19.388;2023-02-01T03:22:05;2.76;86.52
72928;SHT30;61071;51.618;19.388;2023-02-01T03:24:55;2.79;86.63
72928;SHT30;61071;51.618;19.388;2023-02-01T03:27:34;2.77;86.69
72928;SHT30;61071;51.618;19.388;2023-02-01T03:30:29;2.73;86.58
72928;SHT30;61071;51.618;19.388;2023-02-01T03:33:00;2.73;86.59
72928;SHT30;61071;51.618;19.388;2023-02-01T03:38:30;2.87;86.04
72928;SHT30;61071;51.618;19.388;2023-02-01T03:43:56;2.92;85.83
72928;SHT30;61071;51.618;19.388;2023-02-01T03:46:32;2.90;85.76
72928;SHT30;61071;51.618;19.388;2023-02-01T03:49:04;2.87;85.87
72928;SHT30;61071;51.618;19.388;2023-02-01T03:51:32;2.87;86.24
72928;SHT30;61071;51.618;19.388;2023-02-01T03:54:01;2.90;85.64
72928;SHT30;61071;51.618;19.388;2023-02-01T03:56:29;2.98;85.71
72928;SHT30;61071;51.618;19.388;2023-02-01T03:58:56;2.98;85.43
72928;SHT30;61071;51.618;19.388;2023-02-01T04:01:30;3.01;85.19
72928;SHT30;61071;51.618;19.388;2023-02-01T04:03:57;3.02;85.07
72928;SHT30;61071;51.618;19.388;2023-02-01T04:06:24;2.97;84.96
72928;SHT30;61071;51.618;19.388;2023-02-01T04:08:50;3.08;84.70
72928;SHT30;61071;51.618;19.388;2023-02-01T04:11:17;3.07;84.68
72928;SHT30;61071;51.618;19.388;2023-02-01T04:13:43;3.07;84.68
72928;SHT30;61071;51.618;19.388;2023-02-01T04:16:09;3.07;83.89
72928;SHT30;61071;51.618;19.388;2023-02-01T04:18:35;3.07;84.13
72928;SHT30;61071;51.618;19.388;2023-02-01T04:21:01;3.11;83.98
72928;SHT30;61071;51.618;19.388;2023-02-01T04:23:28;3.02;84.43
72928;SHT30;61071;51.618;19.388;2023-02-01T04:25:56;3.07;84.00
72928;SHT30;61071;51.618;19.388;2023-02-01T04:28:23;3.07;84.47
72928;SHT30;61071;51.618;19.388;2023-02-01T04:30:49;3.11;84.05
72928;SHT30;61071;51.618;19.388;2023-02-01T04:33:15;3.07;84.10
72928;SHT30;61071;51.618;19.388;2023-02-01T04:35:40;3.05;83.91
72928;SHT30;61071;51.618;19.388;2023-02-01T04:38:06;3.05;83.89
72928;SHT30;61071;51.618;19.388;2023-02-01T04:40:33;3.09;83.70
72928;SHT30;61071;51.618;19.388;2023-02-01T04:43:00;2.98;83.77
72928;SHT30;61071;51.618;19.388;2023-02-01T04:45:26;3.01;83.50
72928;SHT30;61071;51.618;19.388;2023-02-01T04:47:52;3.02;83.58
72928;SHT30;61071;51.618;19.388;2023-02-01T04:50:18;3.08;83.17
72928;SHT30;61071;51.618;19.388;2023-02-01T04:52:43;3.09;83.27
72928;SHT30;61071;51.618;19.388;2023-02-01T04:55:11;3.19;83.07
72928;SHT30;61071;51.618;19.388;2023-02-01T04:57:36;3.18;83.35
72928;SHT30;61071;51.618;19.388;2023-02-01T05:00:06;3.22;83.26
72928;SHT30;61071;51.618;19.388;2023-02-01T05:02:31;3.25;82.98
72928;SHT30;61071;51.618;19.388;2023-02-01T05:04:57;3.18;82.92
72928;SHT30;61071;51.618;19.388;2023-02-01T05:07:23;3.13;82.83
72928;SHT30;61071;51.618;19.388;2023-02-01T05:09:49;3.16;82.87
72928;SHT30;61071;51.618;19.388;2023-02-01T05:12:15;3.22;82.87
72928;SHT30;61071;51.618;19.388;2023-02-01T05:14:59;3.12;82.93
72928;SHT30;61071;51.618;19.388;2023-02-01T05:17:25;3.22;82.82
72928;SHT30;61071;51.618;19.388;2023-02-01T05:19:51;3.23;82.71
72928;SHT30;61071;51.618;19.388;2023-02-01T05:22:16;3.13;83.07
72928;SHT30;61071;51.618;19.388;2023-02-01T05:24:42;3.09;82.72
72928;SHT30;61071;51.618;19.388;2023-02-01T05:27:07;3.11;82.99
72928;SHT30;61071;51.618;19.388;2023-02-01T05:29:33;3.19;82.75
72928;SHT30;61071;51.618;19.388;2023-02-01T05:31:58;3.29;82.69
72928;SHT30;61071;51.618;19.388;2023-02-01T05:34:24;3.22;82.76
72928;SHT30;61071;51.618;19.388;2023-02-01T05:36:50;3.23;82.89
72928;SHT30;61071;51.618;19.388;2023-02-01T05:39:15;3.30;82.91
72928;SHT30;61071;51.618;19.388;2023-02-01T05:41:41;3.26;82.84
72928;SHT30;61071;51.618;19.388;2023-02-01T05:44:07;3.32;83.02
72928;SHT30;61071;51.618;19.388;2023-02-01T05:46:34;3.29;82.98
72928;SHT30;61071;51.618;19.388;2023-02-01T05:49:00;3.29;83.18
72928;SHT30;61071;51.618;19.388;2023-02-01T05:51:26;3.30;83.03
72928;SHT30;61071;51.618;19.388;2023-02-01T05:53:51;3.28;82.96
72928;SHT30;61071;51.618;19.388;2023-02-01T05:56:17;3.28;83.02
72928;SHT30;61071;51.618;19.388;2023-02-01T05:58:43;3.32;82.72
72928;SHT30;61071;51.618;19.388;2023-02-01T06:01:08;3.28;82.93
72928;SHT30;61071;51.618;19.388;2023-02-01T06:03:34;3.29;83.01
72928;SHT30;61071;51.618;19.388;2023-02-01T06:06:00;3.25;82.61
72928;SHT30;61071;51.618;19.388;2023-02-01T06:08:27;3.33;82.42
72928;SHT30;61071;51.618;19.388;2023-02-01T06:11:04;3.38;82.02
72928;SHT30;61071;51.618;19.388;2023-02-01T06:13:30;3.39;82.35
72928;SHT30;61071;51.618;19.388;2023-02-01T06:15:56;3.40;82.27
72928;SHT30;61071;51.618;19.388;2023-02-01T06:18:24;3.39;82.05
72928;SHT30;61071;51.618;19.388;2023-02-01T06:20:58;3.32;81.55
72928;SHT30;61071;51.618;19.388;2023-02-01T06:23:26;3.40;81.85
72928;SHT30;61071;51.618;19.388;2023-02-01T06:26:04;3.43;81.13
72928;SHT30;61071;51.618;19.388;2023-02-01T06:28:31;3.44;81.38
72928;SHT30;61071;51.618;19.388;2023-02-01T06:30:58;3.49;81.43
72928;SHT30;61071;51.618;19.388;2023-02-01T06:33:27;3.38;81.39
72928;SHT30;61071;51.618;19.388;2023-02-01T06:36:01;3.43;81.08
72928;SHT30;61071;51.618;19.388;2023-02-01T06:38:27;3.52;80.96
72928;SHT30;61071;51.618;19.388;2023-02-01T06:40:55;3.52;81.06
72928;SHT30;61071;51.618;19.388;2023-02-01T06:43:23;3.60;80.92
72928;SHT30;61071;51.618;19.388;2023-02-01T06:45:50;3.64;80.65
72928;SHT30;61071;51.618;19.388;2023-02-01T06:48:16;3.56;80.67
72928;SHT30;61071;51.618;19.388;2023-02-01T06:50:41;3.60;80.34
72928;SHT30;61071;51.618;19.388;2023-02-01T06:53:07;3.52;80.47
72928;SHT30;61071;51.618;19.388;2023-02-01T06:55:33;3.55;80.31
72928;SHT30;61071;51.618;19.388;2023-02-01T06:57:58;3.60;80.26
72928;SHT30;61071;51.618;19.388;2023-02-01T07:00:24;3.59;80.09
72928;SHT30;61071;51.618;19.388;2023-02-01T07:02:50;3.53;79.93
72928;SHT30;61071;51.618;19.388;2023-02-01T07:05:16;3.52;80.16
72928;SHT30;61071;51.618;19.388;2023-02-01T07:07:42;3.53;80.16
72928;SHT30;61071;51.618;19.388;2023-02-01T07:10:09;3.56;80.25
72928;SHT30;61071;51.618;19.388;2023-02-01T07:12:35;3.62;79.89
72928;SHT30;61071;51.618;19.388;2023-02-01T07:15:02;3.60;80.08
72928;SHT30;61071;51.618;19.388;2023-02-01T07:17:28;3.55;79.72
72928;SHT30;61071;51.618;19.388;2023-02-01T07:19:57;3.57;79.85
72928;SHT30;61071;51.618;19.388;2023-02-01T07:22:25;3.57;79.75
72928;SHT30;61071;51.618;19.388;2023-02-01T07:24:51;3.66;79.94
72928;SHT30;61071;51.618;19.388;2023-02-01T07:27:17;3.69;79.37
72928;SHT30;61071;51.618;19.388;2023-02-01T07:29:43;3.69;79.38
72928;SHT30;61071;51.618;19.388;2023-02-01T07:32:08;3.66;79.16
72928;SHT30;61071;51.618;19.388;2023-02-01T07:34:34;3.70;79.12
72928;SHT30;61071;51.618;19.388;2023-02-01T07:37:00;3.66;79.28
72928;SHT30;61071;51.618;19.388;2023-02-01T07:39:26;3.76;79.11
72928;SHT30;61071;51.618;19.388;2023-02-01T07:41:54;3.76;79.22
72928;SHT30;61071;51.618;19.388;2023-02-01T07:44:19;3.76;79.29
72928;SHT30;61071;51.618;19.388;2023-02-01T07:46:49;3.70;79.36
72928;SHT30;61071;51.618;19.388;2023-02-01T07:49:15;3.76;78.79
72928;SHT30;61071;51.618;19.388;2023-02-01T07:51:43;3.73;78.87
72928;SHT30;61071;51.618;19.388;2023-02-01T07:54:08;3.78;79.35
72928;SHT30;61071;51.618;19.388;2023-02-01T07:56:34;3.83;79.13
72928;SHT30;61071;51.618;19.388;2023-02-01T07:59:00;3.78;79.01
72928;SHT30;61071;51.618;19.388;2023-02-01T08:01:28;3.81;78.39
72928;SHT30;61071;51.618;19.388;2023-02-01T08:03:57;3.87;77.76
72928;SHT30;61071;51.618;19.388;2023-02-01T08:06:26;3.83;78.53
72928;SHT30;61071;51.618;19.388;2023-02-01T08:08:53;3.91;78.75
72928;SHT30;61071;51.618;19.388;2023-02-01T08:11:21;3.86;79.04
72928;SHT30;61071;51.618;19.388;2023-02-01T08:13:47;3.86;79.43
72928;SHT30;61071;51.618;19.388;2023-02-01T08:16:15;3.88;79.54
72928;SHT30;61071;51.618;19.388;2023-02-01T08:18:42;3.86;79.15
72928;SHT30;61071;51.618;19.388;2023-02-01T08:21:20;3.86;79.26
72928;SHT30;61071;51.618;19.388;2023-02-01T08:23:48;3.88;78.82
72928;SHT30;61071;51.618;19.388;2023-02-01T08:26:16;3.91;79.14
72928;SHT30;61071;51.618;19.388;2023-02-01T08:28:49;3.95;78.69
72928;SHT30;61071;51.618;19.388;2023-02-01T08:31:18;3.94;78.53
72928;SHT30;61071;51.618;19.388;2023-02-01T08:33:53;4.02;78.48
72928;SHT30;61071;51.618;19.388;2023-02-01T08:36:20;4.02;78.63
72928;SHT30;61071;51.618;19.388;2023-02-01T08:38:46;4.02;78.68
72928;SHT30;61071;51.618;19.388;2023-02-01T08:41:15;4.11;78.40
72928;SHT30;61071;51.618;19.388;2023-02-01T08:43:43;4.11;78.60
72928;SHT30;61071;51.618;19.388;2023-02-01T08:46:10;4.24;78.25
72928;SHT30;61071;51.618;19.388;2023-02-01T08:48:37;4.21;77.51
72928;SHT30;61071;51.618;19.388;2023-02-01T08:51:10;4.26;77.51
72928;SHT30;61071;51.618;19.388;2023-02-01T08:53:37;4.33;77.36
72928;SHT30;61071;51.618;19.388;2023-02-01T08:56:05;4.28;77.72
72928;SHT30;61071;51.618;19.388;2023-02-01T08:58:32;4.26;78.03
72928;SHT30;61071;51.618;19.388;2023-02-01T09:01:04;4.32;77.54
72928;SHT30;61071;51.618;19.388;2023-02-01T09:03:30;4.33;77.92
72928;SHT30;61071;51.618;19.388;2023-02-01T09:06:07;4.29;78.03
72928;SHT30;61071;51.618;19.388;2023-02-01T09:08:34;4.35;78.31
72928;SHT30;61071;51.618;19.388;2023-02-01T09:11:03;4.39;78.40
72928;SHT30;61071;51.618;19.388;2023-02-01T09:13:30;4.39;78.58
72928;SHT30;61071;51.618;19.388;2023-02-01T09:15:55;4.24;79.09
72928;SHT30;61071;51.618;19.388;2023-02-01T09:18:21;4.39;79.17
72928;SHT30;61071;51.618;19.388;2023-02-01T09:20:47;4.48;78.57
72928;SHT30;61071;51.618;19.388;2023-02-01T09:23:13;4.49;78.55
72928;SHT30;61071;51.618;19.388;2023-02-01T09:25:38;4.52;79.09
72928;SHT30;61071;51.618;19.388;2023-02-01T09:28:05;4.43;79.17
72928;SHT30;61071;51.618;19.388;2023-02-01T09:30:32;4.52;79.42
72928;SHT30;61071;51.618;19.388;2023-02-01T09:32:58;4.52;79.42
72928;SHT30;61071;51.618;19.388;2023-02-01T09:35:24;4.48;79.80
72928;SHT30;61071;51.618;19.388;2023-02-01T09:37:52;4.38;80.56
72928;SHT30;61071;51.618;19.388;2023-02-01T09:40:18;4.33;81.18
72928;SHT30;61071;51.618;19.388;2023-02-01T09:48:16;3.99;83.05
72928;SHT30;61071;51.618;19.388;2023-02-01T09:50:49;3.88;84.00
72928;SHT30;61071;51.618;19.388;2023-02-01T09:53:30;3.74;84.35
72928;SHT30;61071;51.618;19.388;2023-02-01T09:56:23;3.67;85.21
72928;SHT30;61071;51.618;19.388;2023-02-01T10:01:36;3.78;86.13
72928;SHT30;61071;51.618;19.388;2023-02-01T10:04:14;3.99;85.60
72928;SHT30;61071;51.618;19.388;2023-02-01T10:06:51;3.99;85.76
72928;SHT30;61071;51.618;19.388;2023-02-01T10:18:15;4.11;85.12
72928;SHT30;61071;51.618;19.388;2023-02-01T10:21:14;4.28;85.16
72928;SHT30;61071;51.618;19.388;2023-02-01T10:24:08;4.42;84.68
72928;SHT30;61071;51.618;19.388;2023-02-01T10:26:42;4.38;83.84
72928;SHT30;61071;51.618;19.388;2023-02-01T10:29:21;4.32;84.19
72928;SHT30;61071;51.618;19.388;2023-02-01T10:31:47;4.36;84.44
72928;SHT30;61071;51.618;19.388;2023-02-01T10:34:47;4.28;84.21
72928;SHT30;61071;51.618;19.388;2023-02-01T10:37:34;4.25;84.10
72928;SHT30;61071;51.618;19.388;2023-02-01T10:40:17;4.29;84.46
72928;SHT30;61071;51.618;19.388;2023-02-01T10:42:45;4.36;84.57
72928;SHT30;61071;51.618;19.388;2023-02-01T10:45:22;4.59;84.16
72928;SHT30;61071;51.618;19.388;2023-02-01T10:47:51;4.79;84.15
72928;SHT30;61071;51.618;19.388;2023-02-01T10:50:38;4.90;82.42
72928;SHT30;61071;51.618;19.388;2023-02-01T10:53:20;4.98;82.73
72928;SHT30;61071;51.618;19.388;2023-02-01T10:55:52;5.07;82.53
72928;SHT30;61071;51.618;19.388;2023-02-01T10:58:45;5.04;81.89
72928;SHT30;61071;51.618;19.388;2023-02-01T11:01:21;5.04;81.97
72928;SHT30;61071;51.618;19.388;2023-02-01T11:03:59;4.95;81.76
72928;SHT30;61071;51.618;19.388;2023-02-01T11:06:41;4.97;81.92
72928;SHT30;61071;51.618;19.388;2023-02-01T11:11:55;5.04;81.74
72928;SHT30;61071;51.618;19.388;2023-02-01T11:14:35;5.15;81.77
72928;SHT30;61071;51.618;19.388;2023-02-01T11:17:22;5.32;81.69
72928;SHT30;61071;51.618;19.388;2023-02-01T11:20:17;5.56;81.02
72928;SHT30;61071;51.618;19.388;2023-02-01T11:22:53;5.69;79.69
72928;SHT30;61071;51.618;19.388;2023-02-01T11:25:20;5.69;80.31
72928;SHT30;61071;51.618;19.388;2023-02-01T11:27:50;5.70;80.17
72928;SHT30;61071;51.618;19.388;2023-02-01T11:30:43;5.65;79.18
72928;SHT30;61071;51.618;19.388;2023-02-01T11:33:16;5.71;79.49
72928;SHT30;61071;51.618;19.388;2023-02-01T11:35:43;5.74;79.14
72928;SHT30;61071;51.618;19.388;2023-02-01T11:38:31;5.66;78.65
72928;SHT30;61071;51.618;19.388;2023-02-01T11:41:21;5.96;78.07
72928;SHT30;61071;51.618;19.388;2023-02-01T11:43:57;6.03;76.51
72928;SHT30;61071;51.618;19.388;2023-02-01T11:46:30;5.85;77.51
72928;SHT30;61071;51.618;19.388;2023-02-01T11:49:15;5.50;78.49
72928;SHT30;61071;51.618;19.388;2023-02-01T11:52:18;5.43;79.84
72928;SHT30;61071;51.618;19.388;2023-02-01T12:06:55;4.88;81.60
72928;SHT30;61071;51.618;19.388;2023-02-01T12:09:55;4.80;82.29
72928;SHT30;61071;51.618;19.388;2023-02-01T12:12:40;4.85;81.76
72928;SHT30;61071;51.618;19.388;2023-02-01T12:22:00;4.91;81.50
72928;SHT30;61071;51.618;19.388;2023-02-01T12:24:52;4.91;81.20
72928;SHT30;61071;51.618;19.388;2023-02-01T12:31:07;4.77;81.23
72928;SHT30;61071;51.618;19.388;2023-02-01T12:34:14;4.81;81.26
72928;SHT30;61071;51.618;19.388;2023-02-01T12:37:18;4.91;81.28
72928;SHT30;61071;51.618;19.388;2023-02-01T12:43:18;4.87;80.04
72928;SHT30;61071;51.618;19.388;2023-02-01T12:46:16;4.94;80.52
72928;SHT30;61071;51.618;19.388;2023-02-01T12:51:36;4.87;81.05
72928;SHT30;61071;51.618;19.388;2023-02-01T12:56:46;4.87;81.88
72928;SHT30;61071;51.618;19.388;2023-02-01T12:59:44;4.72;82.18
72928;SHT30;61071;51.618;19.388;2023-02-01T13:05:36;4.52;83.56
72928;SHT30;61071;51.618;19.388;2023-02-01T13:08:12;4.59;83.83
72928;SHT30;61071;51.618;19.388;2023-02-01T13:10:54;4.59;83.72
72928;SHT30;61071;51.618;19.388;2023-02-01T13:16:43;4.70;84.02
72928;SHT30;61071;51.618;19.388;2023-02-01T13:19:18;4.57;84.36
72928;SHT30;61071;51.618;19.388;2023-02-01T13:21:51;4.39;84.89
72928;SHT30;61071;51.618;19.388;2023-02-01T13:24:36;4.22;85.19
72928;SHT30;61071;51.618;19.388;2023-02-01T13:38:26;3.62;87.16
72928;SHT30;61071;51.618;19.388;2023-02-01T13:43:33;3.88;87.24
72928;SHT30;61071;51.618;19.388;2023-02-01T13:46:09;3.87;87.24
72928;SHT30;61071;51.618;19.388;2023-02-01T13:55:44;4.06;87.99
72928;SHT30;61071;51.618;19.388;2023-02-01T13:58:42;4.04;87.84
72928;SHT30;61071;51.618;19.388;2023-02-01T14:03:57;4.19;87.21
72928;SHT30;61071;51.618;19.388;2023-02-01T14:16:19;3.86;88.14
72928;SHT30;61071;51.618;19.388;2023-02-01T14:21:29;3.84;88.15
72928;SHT30;61071;51.618;19.388;2023-02-01T14:26:48;3.95;88.52
72928;SHT30;61071;51.618;19.388;2023-02-01T14:29:37;4.02;87.99
72928;SHT30;61071;51.618;19.388;2023-02-01T14:32:19;4.01;88.15
72928;SHT30;61071;51.618;19.388;2023-02-01T14:42:33;3.98;88.67
72928;SHT30;61071;51.618;19.388;2023-02-01T14:47:43;3.93;88.69
72928;SHT30;61071;51.618;19.388;2023-02-01T14:55:51;3.69;89.02
72928;SHT30;61071;51.618;19.388;2023-02-01T14:58:40;3.64;88.90
72928;SHT30;61071;51.618;19.388;2023-02-01T15:07:12;3.52;89.15
72928;SHT30;61071;51.618;19.388;2023-02-01T15:09:25;3.46;89.12
72928;SHT30;61071;51.618;19.388;2023-02-01T15:12:14;3.49;89.24
72928;SHT30;61071;51.618;19.388;2023-02-01T15:14:47;3.49;89.35
72928;SHT30;61071;51.618;19.388;2023-02-01T15:17:22;3.46;89.18
72928;SHT30;61071;51.618;19.388;2023-02-01T15:20:44;3.40;89.08
72928;SHT30;61071;51.618;19.388;2023-02-01T15:23:01;3.46;89.46
72928;SHT30;61071;51.618;19.388;2023-02-01T15:25:36;3.52;89.30
72928;SHT30;61071;51.618;19.388;2023-02-01T15:28:05;3.53;89.32
72928;SHT30;61071;51.618;19.388;2023-02-01T15:30:35;3.53;89.19
72928;SHT30;61071;51.618;19.388;2023-02-01T15:35:48;3.50;89.10
72928;SHT30;61071;51.618;19.388;2023-02-01T15:41:17;3.52;89.01
72928;SHT30;61071;51.618;19.388;2023-02-01T15:46:38;3.46;89.08
72928;SHT30;61071;51.618;19.388;2023-02-01T15:49:11;3.53;88.89
72928;SHT30;61071;51.618;19.388;2023-02-01T15:51:45;3.44;88.73
72928;SHT30;61071;51.618;19.388;2023-02-01T15:54:24;3.44;88.27
72928;SHT30;61071;51.618;19.388;2023-02-01T15:56:54;3.50;88.73
72928;SHT30;61071;51.618;19.388;2023-02-01T15:59:32;3.50;88.00
72928;SHT30;61071;51.618;19.388;2023-02-01T16:02:00;3.35;88.27
72928;SHT30;61071;51.618;19.388;2023-02-01T16:04:28;3.32;88.09
72928;SHT30;61071;51.618;19.388;2023-02-01T16:07:03;3.29;88.14
72928;SHT30;61071;51.618;19.388;2023-02-01T16:10:20;3.25;87.44
72928;SHT30;61071;51.618;19.388;2023-02-01T16:12:48;3.35;87.60
72928;SHT30;61071;51.618;19.388;2023-02-01T16:15:14;3.32;87.01
72928;SHT30;61071;51.618;19.388;2023-02-01T16:17:40;3.36;86.89
72928;SHT30;61071;51.618;19.388;2023-02-01T16:20:06;3.39;87.11
72928;SHT30;61071;51.618;19.388;2023-02-01T16:22:32;3.35;86.77
72928;SHT30;61071;51.618;19.388;2023-02-01T16:24:58;3.38;86.87
72928;SHT30;61071;51.618;19.388;2023-02-01T16:27:23;3.43;86.78
72928;SHT30;61071;51.618;19.388;2023-02-01T16:29:50;3.42;86.53
72928;SHT30;61071;51.618;19.388;2023-02-01T16:32:19;3.39;86.30
72928;SHT30;61071;51.618;19.388;2023-02-01T16:34:47;3.44;86.65
72928;SHT30;61071;51.618;19.388;2023-02-01T16:37:19;3.36;86.44
72928;SHT30;61071;51.618;19.388;2023-02-01T16:39:46;3.47;86.19
72928;SHT30;61071;51.618;19.388;2023-02-01T16:42:13;3.59;85.94
72928;SHT30;61071;51.618;19.388;2023-02-01T16:44:39;3.66;85.95
72928;SHT30;61071;51.618;19.388;2023-02-01T16:49:42;3.53;86.24
72928;SHT30;61071;51.618;19.388;2023-02-01T16:52:21;3.50;86.13
72928;SHT30;61071;51.618;19.388;2023-02-01T16:54:48;3.55;86.29
72928;SHT30;61071;51.618;19.388;2023-02-01T16:57:17;3.40;86.31
72928;SHT30;61071;51.618;19.388;2023-02-01T16:59:43;3.49;86.69
72928;SHT30;61071;51.618;19.388;2023-02-01T17:02:16;3.66;86.22
72928;SHT30;61071;51.618;19.388;2023-02-01T17:04:42;3.66;85.76
72928;SHT30;61071;51.618;19.388;2023-02-01T17:07:17;3.62;85.74
72928;SHT30;61071;51.618;19.388;2023-02-01T17:09:45;3.53;86.03
72928;SHT30;61071;51.618;19.388;2023-02-01T17:12:27;3.52;86.36
72928;SHT30;61071;51.618;19.388;2023-02-01T17:14:56;3.59;86.51
72928;SHT30;61071;51.618;19.388;2023-02-01T17:17:25;3.62;86.38
72928;SHT30;61071;51.618;19.388;2023-02-01T17:19:53;3.62;86.14
72928;SHT30;61071;51.618;19.388;2023-02-01T17:22:20;3.64;86.04
72928;SHT30;61071;51.618;19.388;2023-02-01T17:24:47;3.62;86.10
72928;SHT30;61071;51.618;19.388;2023-02-01T17:27:13;3.52;86.40
72928;SHT30;61071;51.618;19.388;2023-02-01T17:29:39;3.47;86.60
72928;SHT30;61071;51.618;19.388;2023-02-01T17:32:16;3.57;86.31
72928;SHT30;61071;51.618;19.388;2023-02-01T17:34:43;3.62;86.24
72928;SHT30;61071;51.618;19.388;2023-02-01T17:37:25;3.50;86.30
72928;SHT30;61071;51.618;19.388;2023-02-01T17:39:51;3.60;86.19
72928;SHT30;61071;51.618;19.388;2023-02-01T17:42:19;3.43;86.54
72928;SHT30;61071;51.618;19.388;2023-02-01T17:44:45;3.50;86.30
72928;SHT30;61071;51.618;19.388;2023-02-01T17:47:11;3.56;86.14
72928;SHT30;61071;51.618;19.388;2023-02-01T17:49:37;3.52;86.09
72928;SHT30;61071;51.618;19.388;2023-02-01T17:52:05;3.46;86.23
72928;SHT30;61071;51.618;19.388;2023-02-01T17:54:31;3.43;86.44
72928;SHT30;61071;51.618;19.388;2023-02-01T17:56:57;3.33;86.62
72928;SHT30;61071;51.618;19.388;2023-02-01T17:59:27;3.40;86.79
72928;SHT30;61071;51.618;19.388;2023-02-01T18:01:53;3.38;86.78
72928;SHT30;61071;51.618;19.388;2023-02-01T18:04:25;3.30;87.32
72928;SHT30;61071;51.618;19.388;2023-02-01T18:06:51;3.29;87.81
72928;SHT30;61071;51.618;19.388;2023-02-01T18:09:16;3.42;87.51
72928;SHT30;61071;51.618;19.388;2023-02-01T18:11:42;3.43;87.54
72928;SHT30;61071;51.618;19.388;2023-02-01T18:14:11;3.49;87.31
72928;SHT30;61071;51.618;19.388;2023-02-01T18:16:38;3.55;87.13
72928;SHT30;61071;51.618;19.388;2023-02-01T18:19:04;3.57;86.87
72928;SHT30;61071;51.618;19.388;2023-02-01T18:32:47;3.09;88.12
72928;SHT30;61071;51.618;19.388;2023-02-01T18:35:22;3.02;88.35
72928;SHT30;61071;51.618;19.388;2023-02-01T18:37:55;3.00;88.70
72928;SHT30;61071;51.618;19.388;2023-02-01T18:40:30;3.01;89.13
72928;SHT30;61071;51.618;19.388;2023-02-01T18:42:59;2.95;89.45
72928;SHT30;61071;51.618;19.388;2023-02-01T18:45:39;2.90;89.90
72928;SHT30;61071;51.618;19.388;2023-02-01T18:48:07;3.05;90.00
72928;SHT30;61071;51.618;19.388;2023-02-01T18:50:39;3.15;89.65
72928;SHT30;61071;51.618;19.388;2023-02-01T18:53:21;3.05;89.83